ORB036 UWOO-USSS
Flight info
| Callsign | ORB036 |
|---|---|
| Flight time | 0h 59m |
| Altitude | 37000 |
| Route | AMTUS5D AMTUS T797 MGR L992 NEBIS NEBIS6W |
| Aircraft | B738/M-SDE2E3FGHIRWXY/LB1 |
Departure
| Time | 2026-04-28 10:55 |
|---|---|
| Airport | Orenburg Central Airport (UWOO) |
Arrival
| Time | 2026-04-28 11:55 |
|---|---|
| Airport | Koltsovo Airport (USSS) |
| Time | Latitude | Longitude | Altitude | Speed | Heading |
|---|---|---|---|---|---|
| 2026-04-28 10:34 | 51.79221 | 55.45935 | 375 ft | 0 kts | 358° |
| 2026-04-28 10:48 | 51.79222 | 55.45935 | 375 ft | 0 kts | 358° |
| 2026-04-28 10:48 | 51.79233 | 55.45934 | 375 ft | 4 kts | 358° |
| 2026-04-28 10:49 | 51.79267 | 55.45882 | 375 ft | 8 kts | 277° |
| 2026-04-28 10:49 | 51.79278 | 55.45791 | 375 ft | 8 kts | 287° |
| 2026-04-28 10:49 | 51.79287 | 55.45735 | 375 ft | 0 kts | 293° |
| 2026-04-28 10:49 | 51.79290 | 55.45730 | 375 ft | 2 kts | 307° |
| 2026-04-28 10:50 | 51.79331 | 55.45717 | 375 ft | 10 kts | 358° |
| 2026-04-28 10:50 | 51.79429 | 55.45716 | 376 ft | 17 kts | 360° |
| 2026-04-28 10:50 | 51.79539 | 55.45715 | 389 ft | 13 kts | 356° |
| 2026-04-28 10:50 | 51.79578 | 55.45612 | 389 ft | 11 kts | 270° |
| 2026-04-28 10:51 | 51.79583 | 55.45490 | 390 ft | 11 kts | 282° |
| 2026-04-28 10:51 | 51.79580 | 55.45411 | 390 ft | 2 kts | 219° |
| 2026-04-28 10:51 | 51.79569 | 55.45410 | 391 ft | 2 kts | 169° |
| 2026-04-28 10:51 | 51.79564 | 55.45424 | 391 ft | 1 kts | 105° |
| 2026-04-28 10:52 | 51.79571 | 55.45467 | 390 ft | 11 kts | 75° |
| 2026-04-28 10:52 | 51.79580 | 55.45666 | 389 ft | 25 kts | 89° |
| 2026-04-28 10:52 | 51.79579 | 55.46004 | 390 ft | 35 kts | 90° |
| 2026-04-28 10:52 | 51.79581 | 55.46406 | 394 ft | 35 kts | 89° |
| 2026-04-28 10:53 | 51.79582 | 55.46789 | 393 ft | 33 kts | 90° |
| 2026-04-28 10:53 | 51.79581 | 55.47146 | 390 ft | 30 kts | 89° |
| 2026-04-28 10:53 | 51.79549 | 55.47373 | 392 ft | 9 kts | 121° |
| 2026-04-28 10:53 | 51.79560 | 55.47456 | 391 ft | 9 kts | 19° |
| 2026-04-28 10:54 | 51.79586 | 55.47389 | 390 ft | 9 kts | 260° |
| 2026-04-28 10:54 | 51.79581 | 55.47293 | 391 ft | 8 kts | 271° |
| 2026-04-28 10:54 | 51.79582 | 55.47184 | 390 ft | 12 kts | 271° |
| 2026-04-28 10:54 | 51.79581 | 55.46791 | 393 ft | 72 kts | 270° |
| 2026-04-28 10:55 | 51.79580 | 55.45586 | 389 ft | 140 kts | 269° |
| 2026-04-28 10:55 | 51.79537 | 55.43726 | 532 ft | 186 kts | 266° |
| 2026-04-28 10:55 | 51.79539 | 55.41499 | 1048 ft | 208 kts | 267° |
| 2026-04-28 10:55 | 51.79561 | 55.39147 | 1941 ft | 208 kts | 264° |
| 2026-04-28 10:56 | 51.79561 | 55.36806 | 2635 ft | 217 kts | 263° |
| 2026-04-28 10:56 | 51.79545 | 55.34186 | 2925 ft | 246 kts | 264° |
| 2026-04-28 10:56 | 51.79844 | 55.31369 | 3550 ft | 268 kts | 290° |
| 2026-04-28 10:56 | 51.81019 | 55.28948 | 4359 ft | 283 kts | 320° |
| 2026-04-28 10:57 | 51.82817 | 55.27620 | 5249 ft | 289 kts | 348° |
| 2026-04-28 10:57 | 51.84823 | 55.27721 | 6096 ft | 293 kts | 17° |
| 2026-04-28 10:57 | 51.86581 | 55.29314 | 6863 ft | 293 kts | 46° |
| 2026-04-28 10:57 | 51.87800 | 55.31955 | 7544 ft | 296 kts | 62° |
| 2026-04-28 10:58 | 51.88824 | 55.34874 | 8265 ft | 301 kts | 64° |
| 2026-04-28 10:58 | 51.89829 | 55.37895 | 8929 ft | 309 kts | 64° |
| 2026-04-28 10:58 | 51.90856 | 55.40993 | 9608 ft | 316 kts | 63° |
| 2026-04-28 10:58 | 51.91916 | 55.44166 | 10279 ft | 323 kts | 63° |
| 2026-04-28 10:59 | 51.93026 | 55.47460 | 10565 ft | 345 kts | 63° |
| 2026-04-28 10:59 | 51.94215 | 55.50968 | 10822 ft | 364 kts | 62° |
| 2026-04-28 10:59 | 51.95458 | 55.54612 | 11396 ft | 372 kts | 62° |
| 2026-04-28 10:59 | 51.96716 | 55.58286 | 12160 ft | 374 kts | 63° |
| 2026-04-28 11:00 | 51.97985 | 55.61990 | 12912 ft | 378 kts | 63° |
| 2026-04-28 11:00 | 51.99270 | 55.65744 | 13653 ft | 383 kts | 63° |
| 2026-04-28 11:00 | 52.00567 | 55.69539 | 14346 ft | 387 kts | 63° |
| 2026-04-28 11:00 | 52.01880 | 55.73383 | 15032 ft | 391 kts | 63° |
| 2026-04-28 11:01 | 52.03203 | 55.77264 | 15736 ft | 395 kts | 63° |
| 2026-04-28 11:01 | 52.04542 | 55.81197 | 16426 ft | 400 kts | 63° |
| 2026-04-28 11:01 | 52.05894 | 55.85174 | 17096 ft | 405 kts | 63° |
| 2026-04-28 11:01 | 52.07259 | 55.89197 | 17766 ft | 409 kts | 63° |
| 2026-04-28 11:02 | 52.08638 | 55.93268 | 18445 ft | 413 kts | 63° |
| 2026-04-28 11:02 | 52.10013 | 55.97332 | 19026 ft | 417 kts | 63° |
| 2026-04-28 11:02 | 52.11414 | 56.01482 | 19623 ft | 421 kts | 63° |
| 2026-04-28 11:02 | 52.12827 | 56.05673 | 20217 ft | 424 kts | 63° |
| 2026-04-28 11:03 | 52.14250 | 56.09900 | 20807 ft | 428 kts | 63° |
| 2026-04-28 11:03 | 52.15684 | 56.14166 | 21397 ft | 431 kts | 63° |
| 2026-04-28 11:03 | 52.17130 | 56.18476 | 21956 ft | 435 kts | 63° |
| 2026-04-28 11:03 | 52.18729 | 56.22677 | 22593 ft | 436 kts | 54° |
| 2026-04-28 11:04 | 52.20613 | 56.26566 | 23204 ft | 440 kts | 51° |
| 2026-04-28 11:04 | 52.22600 | 56.30430 | 23575 ft | 448 kts | 50° |
| 2026-04-28 11:04 | 52.24634 | 56.34325 | 23985 ft | 453 kts | 50° |
| 2026-04-28 11:04 | 52.26675 | 56.38255 | 24490 ft | 454 kts | 50° |
| 2026-04-28 11:05 | 52.28709 | 56.42218 | 24986 ft | 456 kts | 50° |
| 2026-04-28 11:05 | 52.30737 | 56.46216 | 25436 ft | 459 kts | 51° |
| 2026-04-28 11:05 | 52.32769 | 56.50259 | 25865 ft | 462 kts | 51° |
| 2026-04-28 11:05 | 52.34807 | 56.54337 | 26288 ft | 465 kts | 51° |
| 2026-04-28 11:06 | 52.36854 | 56.58448 | 26708 ft | 467 kts | 51° |
| 2026-04-28 11:06 | 52.38912 | 56.62591 | 27134 ft | 470 kts | 51° |
| 2026-04-28 11:06 | 52.40978 | 56.66757 | 27550 ft | 472 kts | 51° |
| 2026-04-28 11:06 | 52.43053 | 56.70947 | 27934 ft | 475 kts | 51° |
| 2026-04-28 11:07 | 52.45141 | 56.75168 | 28317 ft | 478 kts | 51° |
| 2026-04-28 11:07 | 52.47237 | 56.79415 | 28696 ft | 481 kts | 51° |
| 2026-04-28 11:07 | 52.49317 | 56.83632 | 29077 ft | 483 kts | 51° |
| 2026-04-28 11:07 | 52.51432 | 56.87929 | 29447 ft | 485 kts | 51° |
| 2026-04-28 11:08 | 52.53558 | 56.92255 | 29810 ft | 488 kts | 51° |
| 2026-04-28 11:08 | 52.55688 | 56.96597 | 30152 ft | 490 kts | 51° |
| 2026-04-28 11:08 | 52.57828 | 57.00968 | 30450 ft | 492 kts | 51° |
| 2026-04-28 11:08 | 52.59976 | 57.05362 | 30747 ft | 494 kts | 51° |
| 2026-04-28 11:09 | 52.62129 | 57.09774 | 31096 ft | 494 kts | 51° |
| 2026-04-28 11:09 | 52.64271 | 57.14171 | 31526 ft | 491 kts | 51° |
| 2026-04-28 11:09 | 52.66401 | 57.18551 | 31976 ft | 489 kts | 51° |
| 2026-04-28 11:09 | 52.68525 | 57.22927 | 32351 ft | 489 kts | 51° |
| 2026-04-28 11:10 | 52.70647 | 57.27306 | 32681 ft | 489 kts | 51° |
| 2026-04-28 11:10 | 52.72763 | 57.31680 | 33057 ft | 488 kts | 51° |
| 2026-04-28 11:10 | 52.74876 | 57.36056 | 33466 ft | 486 kts | 51° |
| 2026-04-28 11:10 | 52.76985 | 57.40431 | 33837 ft | 486 kts | 51° |
| 2026-04-28 11:11 | 52.79083 | 57.44789 | 34141 ft | 486 kts | 51° |
| 2026-04-28 11:11 | 52.81183 | 57.49159 | 34433 ft | 485 kts | 51° |
| 2026-04-28 11:11 | 52.83245 | 57.53458 | 34759 ft | 483 kts | 51° |
| 2026-04-28 11:11 | 52.85331 | 57.57818 | 35034 ft | 483 kts | 51° |
| 2026-04-28 11:12 | 52.87442 | 57.62237 | 35292 ft | 483 kts | 51° |
| 2026-04-28 11:12 | 52.89496 | 57.66547 | 35566 ft | 483 kts | 51° |
| 2026-04-28 11:12 | 52.91569 | 57.70903 | 35863 ft | 481 kts | 51° |
| 2026-04-28 11:12 | 52.93640 | 57.75262 | 36152 ft | 480 kts | 51° |
| 2026-04-28 11:13 | 52.95699 | 57.79604 | 36460 ft | 479 kts | 51° |
| 2026-04-28 11:13 | 52.97754 | 57.83942 | 36771 ft | 477 kts | 51° |
| 2026-04-28 11:13 | 52.99802 | 57.88273 | 37017 ft | 477 kts | 51° |
| 2026-04-28 11:14 | 53.03925 | 57.97013 | 37058 ft | 485 kts | 52° |
| 2026-04-28 11:14 | 53.08117 | 58.05930 | 37060 ft | 493 kts | 52° |
| 2026-04-28 11:15 | 53.12365 | 58.14999 | 37057 ft | 501 kts | 52° |
| 2026-04-28 11:15 | 53.16652 | 58.24186 | 37045 ft | 503 kts | 52° |
| 2026-04-28 11:16 | 53.20947 | 58.33423 | 37048 ft | 504 kts | 52° |
| 2026-04-28 11:16 | 53.25238 | 58.42687 | 37047 ft | 504 kts | 52° |
| 2026-04-28 11:17 | 53.29520 | 58.51964 | 37044 ft | 504 kts | 52° |
| 2026-04-28 11:17 | 53.33789 | 58.61248 | 37045 ft | 503 kts | 52° |
| 2026-04-28 11:18 | 53.38125 | 58.70399 | 37036 ft | 501 kts | 44° |
| 2026-04-28 11:18 | 53.40761 | 58.74190 | 37053 ft | 498 kts | 33° |
| 2026-04-28 11:18 | 53.43719 | 58.77177 | 37056 ft | 495 kts | 23° |
| 2026-04-28 11:19 | 53.50187 | 58.80851 | 37054 ft | 490 kts | 12° |
| 2026-04-28 11:19 | 53.56766 | 58.83934 | 37050 ft | 491 kts | 12° |
| 2026-04-28 11:20 | 53.63332 | 58.87102 | 37039 ft | 491 kts | 13° |
| 2026-04-28 11:20 | 53.69891 | 58.90355 | 37030 ft | 492 kts | 13° |
| 2026-04-28 11:21 | 53.76455 | 58.93642 | 37032 ft | 492 kts | 13° |
| 2026-04-28 11:21 | 53.83029 | 58.96941 | 37021 ft | 493 kts | 13° |
| 2026-04-28 11:22 | 53.89608 | 59.00250 | 37016 ft | 493 kts | 13° |
| 2026-04-28 11:22 | 53.96147 | 59.03549 | 37020 ft | 494 kts | 13° |
| 2026-04-28 11:23 | 54.02734 | 59.06883 | 37013 ft | 494 kts | 13° |
| 2026-04-28 11:23 | 54.09317 | 59.10286 | 37018 ft | 494 kts | 14° |
| 2026-04-28 11:24 | 54.15897 | 59.13732 | 37006 ft | 495 kts | 14° |
| 2026-04-28 11:24 | 54.22481 | 59.17186 | 37016 ft | 495 kts | 14° |
| 2026-04-28 11:25 | 54.29072 | 59.20650 | 37001 ft | 496 kts | 14° |
| 2026-04-28 11:25 | 54.35670 | 59.24126 | 37005 ft | 496 kts | 14° |
| 2026-04-28 11:26 | 54.41152 | 59.27023 | 36993 ft | 496 kts | 14° |
| 2026-04-28 11:26 | 54.47677 | 59.30487 | 36977 ft | 480 kts | 14° |
| 2026-04-28 11:27 | 54.53997 | 59.33851 | 36627 ft | 473 kts | 14° |
| 2026-04-28 11:27 | 54.57117 | 59.35514 | 36319 ft | 466 kts | 13° |
| 2026-04-28 11:27 | 54.60205 | 59.37163 | 35921 ft | 462 kts | 13° |
| 2026-04-28 11:27 | 54.63266 | 59.38799 | 35546 ft | 459 kts | 13° |
| 2026-04-28 11:28 | 54.66304 | 59.40425 | 35148 ft | 456 kts | 13° |
| 2026-04-28 11:28 | 54.69329 | 59.42048 | 34760 ft | 454 kts | 13° |
| 2026-04-28 11:28 | 54.72340 | 59.43665 | 34349 ft | 452 kts | 13° |
| 2026-04-28 11:28 | 54.75347 | 59.45265 | 33866 ft | 453 kts | 12° |
| 2026-04-28 11:29 | 54.78365 | 59.46850 | 33311 ft | 453 kts | 12° |
| 2026-04-28 11:29 | 54.81376 | 59.48426 | 32820 ft | 452 kts | 12° |
| 2026-04-28 11:29 | 54.84380 | 59.50002 | 32410 ft | 449 kts | 12° |
| 2026-04-28 11:29 | 54.87360 | 59.51571 | 32018 ft | 447 kts | 12° |
| 2026-04-28 11:30 | 54.90330 | 59.53139 | 31633 ft | 444 kts | 12° |
| 2026-04-28 11:30 | 54.96209 | 59.56251 | 30884 ft | 439 kts | 13° |
| 2026-04-28 11:30 | 54.99121 | 59.57798 | 30514 ft | 437 kts | 13° |
| 2026-04-28 11:31 | 55.02022 | 59.59339 | 30151 ft | 435 kts | 13° |
| 2026-04-28 11:31 | 55.04913 | 59.60879 | 29724 ft | 433 kts | 13° |
| 2026-04-28 11:31 | 55.07787 | 59.62412 | 29315 ft | 430 kts | 13° |
| 2026-04-28 11:31 | 55.10642 | 59.63938 | 28910 ft | 427 kts | 13° |
| 2026-04-28 11:32 | 55.13471 | 59.65451 | 28519 ft | 424 kts | 13° |
| 2026-04-28 11:32 | 55.16282 | 59.66956 | 28133 ft | 421 kts | 13° |
| 2026-04-28 11:32 | 55.19035 | 59.68432 | 27768 ft | 418 kts | 13° |
| 2026-04-28 11:32 | 55.21847 | 59.69921 | 27348 ft | 418 kts | 10° |
| 2026-04-28 11:33 | 55.24707 | 59.71152 | 26525 ft | 429 kts | 7° |
| 2026-04-28 11:33 | 55.27620 | 59.72226 | 25864 ft | 437 kts | 6° |
| 2026-04-28 11:33 | 55.30596 | 59.73291 | 25496 ft | 435 kts | 6° |
| 2026-04-28 11:33 | 55.33539 | 59.74373 | 25249 ft | 430 kts | 6° |
| 2026-04-28 11:34 | 55.36447 | 59.75472 | 24942 ft | 426 kts | 7° |
| 2026-04-28 11:34 | 55.39343 | 59.76580 | 24609 ft | 424 kts | 7° |
| 2026-04-28 11:34 | 55.42213 | 59.77719 | 24277 ft | 423 kts | 8° |
| 2026-04-28 11:34 | 55.45075 | 59.78888 | 23957 ft | 421 kts | 8° |
| 2026-04-28 11:35 | 55.47912 | 59.80059 | 23644 ft | 418 kts | 8° |
| 2026-04-28 11:35 | 55.50737 | 59.81227 | 23316 ft | 415 kts | 8° |
| 2026-04-28 11:35 | 55.53542 | 59.82385 | 22947 ft | 413 kts | 8° |
| 2026-04-28 11:35 | 55.56332 | 59.83534 | 22583 ft | 410 kts | 8° |
| 2026-04-28 11:36 | 55.59109 | 59.84677 | 22225 ft | 408 kts | 8° |
| 2026-04-28 11:36 | 55.61869 | 59.85814 | 21880 ft | 406 kts | 8° |
| 2026-04-28 11:36 | 55.64613 | 59.86945 | 21529 ft | 404 kts | 8° |
| 2026-04-28 11:36 | 55.67344 | 59.88072 | 21177 ft | 402 kts | 8° |
| 2026-04-28 11:37 | 55.70067 | 59.89197 | 20816 ft | 401 kts | 8° |
| 2026-04-28 11:37 | 55.72773 | 59.90317 | 20468 ft | 397 kts | 8° |
| 2026-04-28 11:37 | 55.75446 | 59.91427 | 20014 ft | 392 kts | 8° |
| 2026-04-28 11:37 | 55.78099 | 59.92528 | 19439 ft | 391 kts | 8° |
| 2026-04-28 11:38 | 55.80741 | 59.93626 | 18919 ft | 390 kts | 8° |
| 2026-04-28 11:38 | 55.83373 | 59.94721 | 18435 ft | 387 kts | 9° |
| 2026-04-28 11:38 | 55.85976 | 59.95806 | 17968 ft | 381 kts | 9° |
| 2026-04-28 11:38 | 55.88530 | 59.96874 | 17621 ft | 373 kts | 9° |
| 2026-04-28 11:39 | 55.91033 | 59.97923 | 17255 ft | 366 kts | 9° |
| 2026-04-28 11:39 | 55.93441 | 59.99258 | 16963 ft | 360 kts | 19° |
| 2026-04-28 11:39 | 55.95732 | 60.00988 | 16672 ft | 356 kts | 22° |
| 2026-04-28 11:39 | 55.97972 | 60.02833 | 16357 ft | 354 kts | 23° |
| 2026-04-28 11:40 | 56.00213 | 60.04703 | 16063 ft | 360 kts | 23° |
| 2026-04-28 11:40 | 56.02535 | 60.06622 | 15748 ft | 374 kts | 23° |
| 2026-04-28 11:40 | 56.04900 | 60.08551 | 15364 ft | 371 kts | 23° |
| 2026-04-28 11:40 | 56.07226 | 60.10430 | 15011 ft | 364 kts | 22° |
| 2026-04-28 11:41 | 56.09513 | 60.12267 | 14689 ft | 356 kts | 22° |
| 2026-04-28 11:41 | 56.11755 | 60.14060 | 14364 ft | 350 kts | 22° |
| 2026-04-28 11:41 | 56.13963 | 60.15822 | 14045 ft | 346 kts | 22° |
| 2026-04-28 11:41 | 56.16160 | 60.17591 | 13691 ft | 347 kts | 26° |
| 2026-04-28 11:42 | 56.18119 | 60.20121 | 13099 ft | 348 kts | 45° |
| 2026-04-28 11:42 | 56.19879 | 60.23150 | 12485 ft | 350 kts | 48° |
| 2026-04-28 11:42 | 56.21600 | 60.26222 | 11997 ft | 348 kts | 48° |
| 2026-04-28 11:42 | 56.23311 | 60.29264 | 11564 ft | 343 kts | 47° |
| 2026-04-28 11:43 | 56.25011 | 60.32252 | 11134 ft | 340 kts | 47° |
| 2026-04-28 11:43 | 56.26694 | 60.35178 | 10758 ft | 334 kts | 46° |
| 2026-04-28 11:43 | 56.28356 | 60.38045 | 10443 ft | 327 kts | 46° |
| 2026-04-28 11:43 | 56.29976 | 60.40832 | 10134 ft | 321 kts | 46° |
| 2026-04-28 11:44 | 56.31557 | 60.43610 | 9944 ft | 313 kts | 50° |
| 2026-04-28 11:44 | 56.33026 | 60.46548 | 9710 ft | 318 kts | 53° |
| 2026-04-28 11:44 | 56.34467 | 60.49580 | 9436 ft | 319 kts | 53° |
| 2026-04-28 11:44 | 56.35910 | 60.52638 | 9159 ft | 318 kts | 53° |
| 2026-04-28 11:45 | 56.37337 | 60.55652 | 8895 ft | 315 kts | 53° |
| 2026-04-28 11:45 | 56.38756 | 60.58632 | 8632 ft | 312 kts | 52° |
| 2026-04-28 11:45 | 56.40165 | 60.61579 | 8374 ft | 309 kts | 52° |
| 2026-04-28 11:45 | 56.41550 | 60.64472 | 8112 ft | 307 kts | 52° |
| 2026-04-28 11:46 | 56.42960 | 60.67413 | 7850 ft | 305 kts | 52° |
| 2026-04-28 11:46 | 56.44343 | 60.70298 | 7598 ft | 302 kts | 52° |
| 2026-04-28 11:46 | 56.45696 | 60.73124 | 7344 ft | 301 kts | 52° |
| 2026-04-28 11:46 | 56.47062 | 60.75976 | 7093 ft | 299 kts | 52° |
| 2026-04-28 11:47 | 56.48416 | 60.78808 | 6841 ft | 297 kts | 52° |
| 2026-04-28 11:47 | 56.49762 | 60.81625 | 6610 ft | 295 kts | 52° |
| 2026-04-28 11:47 | 56.51101 | 60.84430 | 6372 ft | 295 kts | 52° |
| 2026-04-28 11:47 | 56.52440 | 60.87239 | 6107 ft | 295 kts | 52° |
| 2026-04-28 11:48 | 56.53777 | 60.90046 | 5838 ft | 294 kts | 52° |
| 2026-04-28 11:48 | 56.55108 | 60.92846 | 5580 ft | 293 kts | 52° |
| 2026-04-28 11:48 | 56.56434 | 60.95636 | 5321 ft | 291 kts | 52° |
| 2026-04-28 11:48 | 56.57751 | 60.98410 | 5054 ft | 290 kts | 52° |
| 2026-04-28 11:49 | 56.59063 | 61.01175 | 4794 ft | 288 kts | 52° |
| 2026-04-28 11:49 | 56.60365 | 61.03924 | 4558 ft | 286 kts | 51° |
| 2026-04-28 11:49 | 56.61636 | 61.06609 | 4492 ft | 275 kts | 52° |
| 2026-04-28 11:49 | 56.62870 | 61.09217 | 4383 ft | 269 kts | 51° |
| 2026-04-28 11:50 | 56.64320 | 61.11303 | 4237 ft | 266 kts | 23° |
| 2026-04-28 11:50 | 56.66096 | 61.11856 | 4141 ft | 256 kts | 355° |
| 2026-04-28 11:50 | 56.67830 | 61.11458 | 4055 ft | 248 kts | 347° |
| 2026-04-28 11:50 | 56.69521 | 61.10857 | 3818 ft | 248 kts | 346° |
| 2026-04-28 11:51 | 56.71185 | 61.10095 | 3572 ft | 245 kts | 332° |
| 2026-04-28 11:51 | 56.72468 | 61.08217 | 3325 ft | 234 kts | 298° |
| 2026-04-28 11:51 | 56.72987 | 61.05522 | 3120 ft | 222 kts | 275° |
| 2026-04-28 11:51 | 56.73236 | 61.02806 | 2831 ft | 210 kts | 273° |
| 2026-04-28 11:52 | 56.73315 | 61.01514 | 2731 ft | 201 kts | 270° |
| 2026-04-28 11:52 | 56.73413 | 60.99077 | 2555 ft | 186 kts | 270° |
| 2026-04-28 11:52 | 56.73496 | 60.96811 | 2361 ft | 174 kts | 269° |
| 2026-04-28 11:52 | 56.73577 | 60.94666 | 2136 ft | 164 kts | 269° |
| 2026-04-28 11:53 | 56.73652 | 60.92681 | 1942 ft | 158 kts | 270° |
| 2026-04-28 11:53 | 56.73727 | 60.90749 | 1737 ft | 142 kts | 270° |
| 2026-04-28 11:53 | 56.73798 | 60.89014 | 1525 ft | 133 kts | 269° |
| 2026-04-28 11:53 | 56.73858 | 60.87359 | 1250 ft | 138 kts | 270° |
| 2026-04-28 11:54 | 56.73915 | 60.85620 | 1099 ft | 137 kts | 271° |
| 2026-04-28 11:54 | 56.73987 | 60.83841 | 921 ft | 141 kts | 272° |
| 2026-04-28 11:54 | 56.74067 | 60.82096 | 780 ft | 137 kts | 271° |
| 2026-04-28 11:54 | 56.74125 | 60.80578 | 776 ft | 99 kts | 275° |
| 2026-04-28 11:55 | 56.74163 | 60.79608 | 778 ft | 55 kts | 275° |
| 2026-04-28 11:55 | 56.74186 | 60.79162 | 778 ft | 25 kts | 289° |
| 2026-04-28 11:55 | 56.74255 | 60.79098 | 778 ft | 6 kts | 13° |
| 2026-04-28 11:55 | 56.74299 | 60.79111 | 778 ft | 6 kts | 11° |
| 2026-04-28 11:56 | 56.74345 | 60.79128 | 778 ft | 8 kts | 11° |
| 2026-04-28 11:56 | 56.74413 | 60.79152 | 776 ft | 13 kts | 13° |
| 2026-04-28 11:56 | 56.74520 | 60.79192 | 774 ft | 17 kts | 1° |
| 2026-04-28 11:56 | 56.74632 | 60.79199 | 777 ft | 16 kts | 21° |
| 2026-04-28 11:57 | 56.74662 | 60.79376 | 777 ft | 15 kts | 90° |
| 2026-04-28 11:57 | 56.74661 | 60.79567 | 778 ft | 15 kts | 90° |
| 2026-04-28 11:57 | 56.74662 | 60.79749 | 778 ft | 14 kts | 90° |
| 2026-04-28 11:57 | 56.74662 | 60.79923 | 778 ft | 13 kts | 90° |
| 2026-04-28 11:58 | 56.74666 | 60.80089 | 778 ft | 13 kts | 68° |
| 2026-04-28 11:58 | 56.74747 | 60.80135 | 778 ft | 13 kts | 359° |
| 2026-04-28 11:58 | 56.74832 | 60.80122 | 778 ft | 12 kts | 333° |
| 2026-04-28 11:58 | 56.74889 | 60.80045 | 778 ft | 9 kts | 359° |
| 2026-04-28 11:59 | 56.74931 | 60.80045 | 778 ft | 0 kts | 1° |